sensor_id;sensor_type;location;lat;lon;timestamp;temperature;humidity
38592;DHT22;24356;48.460;11.450;2023-04-24T00:00:56;10.70;82.50
38592;DHT22;24356;48.460;11.450;2023-04-24T00:03:25;10.70;83.30
38592;DHT22;24356;48.460;11.450;2023-04-24T00:05:53;10.70;82.90
38592;DHT22;24356;48.460;11.450;2023-04-24T00:08:19;10.70;82.90
38592;DHT22;24356;48.460;11.450;2023-04-24T00:10:45;10.70;82.80
38592;DHT22;24356;48.460;11.450;2023-04-24T00:13:11;10.70;83.10
38592;DHT22;24356;48.460;11.450;2023-04-24T00:15:38;10.70;82.70
38592;DHT22;24356;48.460;11.450;2023-04-24T00:18:04;10.70;82.90
38592;DHT22;24356;48.460;11.450;2023-04-24T00:20:30;10.60;82.90
38592;DHT22;24356;48.460;11.450;2023-04-24T00:22:57;10.60;83.00
38592;DHT22;24356;48.460;11.450;2023-04-24T00:25:23;10.60;82.90
38592;DHT22;24356;48.460;11.450;2023-04-24T00:27:48;10.60;83.20
38592;DHT22;24356;48.460;11.450;2023-04-24T00:30:15;10.60;83.50
38592;DHT22;24356;48.460;11.450;2023-04-24T00:32:41;10.60;82.90
38592;DHT22;24356;48.460;11.450;2023-04-24T00:35:07;10.50;83.00
38592;DHT22;24356;48.460;11.450;2023-04-24T00:37:32;10.50;83.10
38592;DHT22;24356;48.460;11.450;2023-04-24T00:39:58;10.50;83.00
38592;DHT22;24356;48.460;11.450;2023-04-24T00:42:24;10.50;82.90
38592;DHT22;24356;48.460;11.450;2023-04-24T00:44:50;10.50;83.00
38592;DHT22;24356;48.460;11.450;2023-04-24T00:47:16;10.50;83.00
38592;DHT22;24356;48.460;11.450;2023-04-24T00:49:42;10.40;83.10
38592;DHT22;24356;48.460;11.450;2023-04-24T00:52:07;10.40;83.50
38592;DHT22;24356;48.460;11.450;2023-04-24T00:54:35;10.40;83.30
38592;DHT22;24356;48.460;11.450;2023-04-24T00:57:02;10.40;83.60
38592;DHT22;24356;48.460;11.450;2023-04-24T00:59:27;10.40;83.60
38592;DHT22;24356;48.460;11.450;2023-04-24T01:01:53;10.40;83.70
38592;DHT22;24356;48.460;11.450;2023-04-24T01:04:20;10.40;83.70
38592;DHT22;24356;48.460;11.450;2023-04-24T01:06:45;10.40;83.60
38592;DHT22;24356;48.460;11.450;2023-04-24T01:09:12;10.40;83.70
38592;DHT22;24356;48.460;11.450;2023-04-24T01:11:38;10.30;83.50
38592;DHT22;24356;48.460;11.450;2023-04-24T01:14:04;10.30;83.60
38592;DHT22;24356;48.460;11.450;2023-04-24T01:16:29;10.30;83.60
38592;DHT22;24356;48.460;11.450;2023-04-24T01:18:55;10.30;83.60
38592;DHT22;24356;48.460;11.450;2023-04-24T01:21:21;10.30;83.50
38592;DHT22;24356;48.460;11.450;2023-04-24T01:23:49;10.30;83.40
38592;DHT22;24356;48.460;11.450;2023-04-24T01:26:16;10.20;83.40
38592;DHT22;24356;48.460;11.450;2023-04-24T01:28:42;10.20;83.30
38592;DHT22;24356;48.460;11.450;2023-04-24T01:31:08;10.20;83.40
38592;DHT22;24356;48.460;11.450;2023-04-24T01:33:33;10.20;83.40
38592;DHT22;24356;48.460;11.450;2023-04-24T01:35:59;10.20;83.40
38592;DHT22;24356;48.460;11.450;2023-04-24T01:38:25;10.10;83.50
38592;DHT22;24356;48.460;11.450;2023-04-24T01:40:51;10.10;83.40
38592;DHT22;24356;48.460;11.450;2023-04-24T01:43:17;10.10;83.90
38592;DHT22;24356;48.460;11.450;2023-04-24T01:45:43;10.10;83.70
38592;DHT22;24356;48.460;11.450;2023-04-24T01:48:08;10.10;84.00
38592;DHT22;24356;48.460;11.450;2023-04-24T01:50:34;10.10;83.90
38592;DHT22;24356;48.460;11.450;2023-04-24T01:53:00;10.00;84.10
38592;DHT22;24356;48.460;11.450;2023-04-24T01:55:26;10.00;83.80
38592;DHT22;24356;48.460;11.450;2023-04-24T01:57:52;10.00;83.90
38592;DHT22;24356;48.460;11.450;2023-04-24T02:00:20;10.00;83.80
38592;DHT22;24356;48.460;11.450;2023-04-24T02:02:46;10.00;84.10
38592;DHT22;24356;48.460;11.450;2023-04-24T02:05:12;9.90;84.00
38592;DHT22;24356;48.460;11.450;2023-04-24T02:07:37;9.90;84.30
38592;DHT22;24356;48.460;11.450;2023-04-24T02:10:03;9.90;84.10
38592;DHT22;24356;48.460;11.450;2023-04-24T02:12:29;9.90;84.10
38592;DHT22;24356;48.460;11.450;2023-04-24T02:14:55;9.90;84.20
38592;DHT22;24356;48.460;11.450;2023-04-24T02:17:21;9.80;83.80
38592;DHT22;24356;48.460;11.450;2023-04-24T02:19:46;9.80;84.30
38592;DHT22;24356;48.460;11.450;2023-04-24T02:22:12;9.80;84.30
38592;DHT22;24356;48.460;11.450;2023-04-24T02:24:38;9.80;84.60
38592;DHT22;24356;48.460;11.450;2023-04-24T02:27:04;9.80;84.50
38592;DHT22;24356;48.460;11.450;2023-04-24T02:29:30;9.80;84.50
38592;DHT22;24356;48.460;11.450;2023-04-24T02:31:56;9.80;84.80
38592;DHT22;24356;48.460;11.450;2023-04-24T02:34:22;9.80;84.60
38592;DHT22;24356;48.460;11.450;2023-04-24T02:36:48;9.70;84.60
38592;DHT22;24356;48.460;11.450;2023-04-24T02:39:14;9.70;85.00
38592;DHT22;24356;48.460;11.450;2023-04-24T02:41:45;9.70;84.70
38592;DHT22;24356;48.460;11.450;2023-04-24T02:44:10;9.70;85.20
38592;DHT22;24356;48.460;11.450;2023-04-24T02:46:36;9.70;84.40
38592;DHT22;24356;48.460;11.450;2023-04-24T02:49:02;9.70;84.60
38592;DHT22;24356;48.460;11.450;2023-04-24T02:51:28;9.70;84.80
38592;DHT22;24356;48.460;11.450;2023-04-24T02:53:53;9.70;85.00
38592;DHT22;24356;48.460;11.450;2023-04-24T02:56:19;9.60;84.20
38592;DHT22;24356;48.460;11.450;2023-04-24T02:58:45;9.60;84.90
38592;DHT22;24356;48.460;11.450;2023-04-24T03:01:10;9.60;84.80
38592;DHT22;24356;48.460;11.450;2023-04-24T03:03:37;9.60;84.60
38592;DHT22;24356;48.460;11.450;2023-04-24T03:06:04;9.60;84.60
38592;DHT22;24356;48.460;11.450;2023-04-24T03:08:33;9.60;85.00
38592;DHT22;24356;48.460;11.450;2023-04-24T03:10:59;9.60;84.90
38592;DHT22;24356;48.460;11.450;2023-04-24T03:13:25;9.60;84.60
38592;DHT22;24356;48.460;11.450;2023-04-24T03:15:50;9.60;84.80
38592;DHT22;24356;48.460;11.450;2023-04-24T03:18:16;9.60;84.60
38592;DHT22;24356;48.460;11.450;2023-04-24T03:20:42;9.60;85.00
38592;DHT22;24356;48.460;11.450;2023-04-24T03:23:07;9.60;84.90
38592;DHT22;24356;48.460;11.450;2023-04-24T03:25:33;9.60;84.90
38592;DHT22;24356;48.460;11.450;2023-04-24T03:27:58;9.60;84.70
38592;DHT22;24356;48.460;11.450;2023-04-24T03:30:24;9.60;84.70
38592;DHT22;24356;48.460;11.450;2023-04-24T03:32:50;9.50;84.70
38592;DHT22;24356;48.460;11.450;2023-04-24T03:35:15;9.50;85.20
38592;DHT22;24356;48.460;11.450;2023-04-24T03:37:41;9.50;85.00
38592;DHT22;24356;48.460;11.450;2023-04-24T03:40:07;9.50;84.90
38592;DHT22;24356;48.460;11.450;2023-04-24T03:42:33;9.50;85.30
38592;DHT22;24356;48.460;11.450;2023-04-24T03:44:59;9.50;85.10
38592;DHT22;24356;48.460;11.450;2023-04-24T03:47:24;9.50;85.10
38592;DHT22;24356;48.460;11.450;2023-04-24T03:49:50;9.50;85.40
38592;DHT22;24356;48.460;11.450;2023-04-24T03:52:15;9.50;85.00
38592;DHT22;24356;48.460;11.450;2023-04-24T03:54:41;9.50;85.20
38592;DHT22;24356;48.460;11.450;2023-04-24T03:57:06;9.50;85.10
38592;DHT22;24356;48.460;11.450;2023-04-24T03:59:32;9.50;85.20
38592;DHT22;24356;48.460;11.450;2023-04-24T04:01:58;9.50;85.20
38592;DHT22;24356;48.460;11.450;2023-04-24T04:04:24;9.50;85.00
38592;DHT22;24356;48.460;11.450;2023-04-24T04:06:50;9.50;85.50
38592;DHT22;24356;48.460;11.450;2023-04-24T04:09:16;9.40;85.30
38592;DHT22;24356;48.460;11.450;2023-04-24T04:11:42;9.40;85.40
38592;DHT22;24356;48.460;11.450;2023-04-24T04:14:07;9.40;85.30
38592;DHT22;24356;48.460;11.450;2023-04-24T04:16:33;9.40;85.10
38592;DHT22;24356;48.460;11.450;2023-04-24T04:18:58;9.40;84.90
38592;DHT22;24356;48.460;11.450;2023-04-24T04:21:24;9.40;84.90
38592;DHT22;24356;48.460;11.450;2023-04-24T04:23:50;9.40;84.90
38592;DHT22;24356;48.460;11.450;2023-04-24T04:26:50;9.40;84.80
38592;DHT22;24356;48.460;11.450;2023-04-24T04:29:17;9.40;84.90
38592;DHT22;24356;48.460;11.450;2023-04-24T04:31:44;9.40;85.40
38592;DHT22;24356;48.460;11.450;2023-04-24T04:34:09;9.40;84.70
38592;DHT22;24356;48.460;11.450;2023-04-24T04:36:35;9.40;84.70
38592;DHT22;24356;48.460;11.450;2023-04-24T04:39:02;9.30;84.70
38592;DHT22;24356;48.460;11.450;2023-04-24T04:41:28;9.40;84.70
38592;DHT22;24356;48.460;11.450;2023-04-24T04:43:53;9.30;84.80
38592;DHT22;24356;48.460;11.450;2023-04-24T04:46:19;9.30;84.80
38592;DHT22;24356;48.460;11.450;2023-04-24T04:48:44;9.30;85.00
38592;DHT22;24356;48.460;11.450;2023-04-24T04:51:11;9.30;85.70
38592;DHT22;24356;48.460;11.450;2023-04-24T04:53:36;9.30;85.70
38592;DHT22;24356;48.460;11.450;2023-04-24T04:56:02;9.30;85.40
38592;DHT22;24356;48.460;11.450;2023-04-24T04:58:28;9.30;85.30
38592;DHT22;24356;48.460;11.450;2023-04-24T05:00:54;9.30;85.50
38592;DHT22;24356;48.460;11.450;2023-04-24T05:03:19;9.30;85.40
38592;DHT22;24356;48.460;11.450;2023-04-24T05:05:45;9.30;85.30
38592;DHT22;24356;48.460;11.450;2023-04-24T05:08:10;9.30;86.20
38592;DHT22;24356;48.460;11.450;2023-04-24T05:10:36;9.30;85.40
38592;DHT22;24356;48.460;11.450;2023-04-24T05:13:03;9.30;85.60
38592;DHT22;24356;48.460;11.450;2023-04-24T05:15:29;9.30;85.40
38592;DHT22;24356;48.460;11.450;2023-04-24T05:17:56;9.30;85.70
38592;DHT22;24356;48.460;11.450;2023-04-24T05:20:22;9.30;85.70
38592;DHT22;24356;48.460;11.450;2023-04-24T05:22:48;9.30;86.10
38592;DHT22;24356;48.460;11.450;2023-04-24T05:25:13;9.30;85.90
38592;DHT22;24356;48.460;11.450;2023-04-24T05:27:39;9.30;86.10
38592;DHT22;24356;48.460;11.450;2023-04-24T05:30:05;9.30;85.50
38592;DHT22;24356;48.460;11.450;2023-04-24T05:32:31;9.30;85.70
38592;DHT22;24356;48.460;11.450;2023-04-24T05:34:57;9.30;85.50
38592;DHT22;24356;48.460;11.450;2023-04-24T05:37:22;9.30;85.80
38592;DHT22;24356;48.460;11.450;2023-04-24T05:39:48;9.30;85.80
38592;DHT22;24356;48.460;11.450;2023-04-24T05:42:14;9.30;85.70
38592;DHT22;24356;48.460;11.450;2023-04-24T05:44:39;9.40;86.30
38592;DHT22;24356;48.460;11.450;2023-04-24T05:47:07;9.40;86.30
38592;DHT22;24356;48.460;11.450;2023-04-24T05:49:32;9.40;86.30
38592;DHT22;24356;48.460;11.450;2023-04-24T05:51:58;9.50;86.10
38592;DHT22;24356;48.460;11.450;2023-04-24T05:54:23;9.50;85.80
38592;DHT22;24356;48.460;11.450;2023-04-24T05:56:49;9.50;85.60
38592;DHT22;24356;48.460;11.450;2023-04-24T05:59:15;9.60;85.40
38592;DHT22;24356;48.460;11.450;2023-04-24T06:01:41;9.70;86.40
38592;DHT22;24356;48.460;11.450;2023-04-24T06:04:07;9.70;86.20
38592;DHT22;24356;48.460;11.450;2023-04-24T06:06:32;9.80;86.40
38592;DHT22;24356;48.460;11.450;2023-04-24T06:08:58;9.80;86.40
38592;DHT22;24356;48.460;11.450;2023-04-24T06:11:24;9.80;86.10
38592;DHT22;24356;48.460;11.450;2023-04-24T06:13:50;9.90;86.20
38592;DHT22;24356;48.460;11.450;2023-04-24T06:16:15;10.00;86.60
38592;DHT22;24356;48.460;11.450;2023-04-24T06:18:41;10.10;86.10
38592;DHT22;24356;48.460;11.450;2023-04-24T06:21:07;10.20;85.70
38592;DHT22;24356;48.460;11.450;2023-04-24T06:23:32;10.20;85.60
38592;DHT22;24356;48.460;11.450;2023-04-24T06:25:59;10.30;85.40
38592;DHT22;24356;48.460;11.450;2023-04-24T06:28:25;10.40;85.40
38592;DHT22;24356;48.460;11.450;2023-04-24T06:30:50;10.40;85.90
38592;DHT22;24356;48.460;11.450;2023-04-24T06:33:18;10.50;85.20
38592;DHT22;24356;48.460;11.450;2023-04-24T06:35:43;10.50;85.20
38592;DHT22;24356;48.460;11.450;2023-04-24T06:38:09;10.60;85.20
38592;DHT22;24356;48.460;11.450;2023-04-24T06:40:34;10.60;85.20
38592;DHT22;24356;48.460;11.450;2023-04-24T06:43:00;10.60;84.60
38592;DHT22;24356;48.460;11.450;2023-04-24T06:45:28;10.60;84.50
38592;DHT22;24356;48.460;11.450;2023-04-24T06:47:54;10.60;84.70
38592;DHT22;24356;48.460;11.450;2023-04-24T06:50:20;10.70;84.50
38592;DHT22;24356;48.460;11.450;2023-04-24T06:52:45;10.70;84.80
38592;DHT22;24356;48.460;11.450;2023-04-24T06:55:12;10.70;84.60
38592;DHT22;24356;48.460;11.450;2023-04-24T06:57:38;10.80;84.70
38592;DHT22;24356;48.460;11.450;2023-04-24T07:00:04;10.80;84.60
38592;DHT22;24356;48.460;11.450;2023-04-24T07:02:31;10.90;84.30
38592;DHT22;24356;48.460;11.450;2023-04-24T07:04:57;10.90;84.40
38592;DHT22;24356;48.460;11.450;2023-04-24T07:07:23;11.00;84.20
38592;DHT22;24356;48.460;11.450;2023-04-24T07:09:49;11.10;84.40
38592;DHT22;24356;48.460;11.450;2023-04-24T07:12:16;11.20;84.20
38592;DHT22;24356;48.460;11.450;2023-04-24T07:14:42;11.30;84.20
38592;DHT22;24356;48.460;11.450;2023-04-24T07:17:08;11.30;84.10
38592;DHT22;24356;48.460;11.450;2023-04-24T07:19:34;11.50;84.10
38592;DHT22;24356;48.460;11.450;2023-04-24T07:22:02;11.50;84.00
38592;DHT22;24356;48.460;11.450;2023-04-24T07:24:28;11.60;83.80
38592;DHT22;24356;48.460;11.450;2023-04-24T07:26:55;11.70;83.80
38592;DHT22;24356;48.460;11.450;2023-04-24T07:29:21;11.80;83.70
38592;DHT22;24356;48.460;11.450;2023-04-24T07:31:46;11.90;83.60
38592;DHT22;24356;48.460;11.450;2023-04-24T07:34:12;12.00;83.60
38592;DHT22;24356;48.460;11.450;2023-04-24T07:36:38;12.10;83.30
38592;DHT22;24356;48.460;11.450;2023-04-24T07:39:04;12.20;83.30
38592;DHT22;24356;48.460;11.450;2023-04-24T07:41:30;12.20;83.00
38592;DHT22;24356;48.460;11.450;2023-04-24T07:43:55;12.20;82.80
38592;DHT22;24356;48.460;11.450;2023-04-24T07:46:21;12.20;82.60
38592;DHT22;24356;48.460;11.450;2023-04-24T07:48:47;12.20;82.60
38592;DHT22;24356;48.460;11.450;2023-04-24T07:51:14;12.10;82.40
38592;DHT22;24356;48.460;11.450;2023-04-24T07:53:41;12.10;82.40
38592;DHT22;24356;48.460;11.450;2023-04-24T07:56:06;12.00;82.30
38592;DHT22;24356;48.460;11.450;2023-04-24T07:58:34;12.00;82.30
38592;DHT22;24356;48.460;11.450;2023-04-24T08:01:00;11.90;82.70
38592;DHT22;24356;48.460;11.450;2023-04-24T08:03:25;11.90;82.80
38592;DHT22;24356;48.460;11.450;2023-04-24T08:05:51;11.90;82.70
38592;DHT22;24356;48.460;11.450;2023-04-24T08:08:17;11.90;82.90
38592;DHT22;24356;48.460;11.450;2023-04-24T08:10:43;11.90;82.90
38592;DHT22;24356;48.460;11.450;2023-04-24T08:13:08;11.90;82.70
38592;DHT22;24356;48.460;11.450;2023-04-24T08:15:34;11.80;82.30
38592;DHT22;24356;48.460;11.450;2023-04-24T08:18:00;11.70;81.60
38592;DHT22;24356;48.460;11.450;2023-04-24T08:20:26;11.60;81.40
38592;DHT22;24356;48.460;11.450;2023-04-24T08:22:52;11.50;81.10
38592;DHT22;24356;48.460;11.450;2023-04-24T08:25:20;11.40;81.20
38592;DHT22;24356;48.460;11.450;2023-04-24T08:27:48;11.30;81.20
38592;DHT22;24356;48.460;11.450;2023-04-24T08:30:14;11.30;81.30
38592;DHT22;24356;48.460;11.450;2023-04-24T08:32:40;11.20;81.30
38592;DHT22;24356;48.460;11.450;2023-04-24T08:35:05;11.20;81.10
38592;DHT22;24356;48.460;11.450;2023-04-24T08:37:33;11.10;81.50
38592;DHT22;24356;48.460;11.450;2023-04-24T08:39:59;11.10;81.70
38592;DHT22;24356;48.460;11.450;2023-04-24T08:42:28;11.10;82.30
38592;DHT22;24356;48.460;11.450;2023-04-24T08:44:54;11.20;83.20
38592;DHT22;24356;48.460;11.450;2023-04-24T08:47:20;11.30;83.70
38592;DHT22;24356;48.460;11.450;2023-04-24T08:49:48;11.50;83.60
38592;DHT22;24356;48.460;11.450;2023-04-24T08:52:15;11.70;83.30
38592;DHT22;24356;48.460;11.450;2023-04-24T08:54:41;11.90;82.80
38592;DHT22;24356;48.460;11.450;2023-04-24T08:57:09;12.10;82.60
38592;DHT22;24356;48.460;11.450;2023-04-24T08:59:38;12.30;82.10
38592;DHT22;24356;48.460;11.450;2023-04-24T09:02:04;12.50;81.70
38592;DHT22;24356;48.460;11.450;2023-04-24T09:04:30;12.70;81.40
38592;DHT22;24356;48.460;11.450;2023-04-24T09:06:57;12.80;80.80
38592;DHT22;24356;48.460;11.450;2023-04-24T09:09:25;12.90;80.30
38592;DHT22;24356;48.460;11.450;2023-04-24T09:11:51;13.00;80.30
38592;DHT22;24356;48.460;11.450;2023-04-24T09:14:19;13.00;80.20
38592;DHT22;24356;48.460;11.450;2023-04-24T09:16:45;13.10;80.10
38592;DHT22;24356;48.460;11.450;2023-04-24T09:19:11;13.10;79.90
38592;DHT22;24356;48.460;11.450;2023-04-24T09:21:36;13.20;79.80
38592;DHT22;24356;48.460;11.450;2023-04-24T09:24:05;13.20;80.00
38592;DHT22;24356;48.460;11.450;2023-04-24T09:26:33;13.30;80.00
38592;DHT22;24356;48.460;11.450;2023-04-24T09:29:00;13.30;79.80
38592;DHT22;24356;48.460;11.450;2023-04-24T09:31:28;13.40;79.50
38592;DHT22;24356;48.460;11.450;2023-04-24T09:33:56;13.50;79.50
38592;DHT22;24356;48.460;11.450;2023-04-24T09:36:37;13.50;79.20
38592;DHT22;24356;48.460;11.450;2023-04-24T09:39:05;13.60;78.90
38592;DHT22;24356;48.460;11.450;2023-04-24T09:41:33;13.70;79.40
38592;DHT22;24356;48.460;11.450;2023-04-24T09:44:21;13.80;79.40
38592;DHT22;24356;48.460;11.450;2023-04-24T09:46:58;13.80;78.60
38592;DHT22;24356;48.460;11.450;2023-04-24T09:51:51;14.00;78.50
38592;DHT22;24356;48.460;11.450;2023-04-24T09:54:20;14.00;78.30
38592;DHT22;24356;48.460;11.450;2023-04-24T09:56:49;14.10;78.00
38592;DHT22;24356;48.460;11.450;2023-04-24T09:59:16;14.10;77.80
38592;DHT22;24356;48.460;11.450;2023-04-24T10:01:42;14.10;78.00
38592;DHT22;24356;48.460;11.450;2023-04-24T10:04:27;14.20;77.60
38592;DHT22;24356;48.460;11.450;2023-04-24T10:06:54;14.30;77.90
38592;DHT22;24356;48.460;11.450;2023-04-24T10:09:22;14.40;77.60
38592;DHT22;24356;48.460;11.450;2023-04-24T10:11:51;14.50;78.00
38592;DHT22;24356;48.460;11.450;2023-04-24T10:14:20;14.70;77.90
38592;DHT22;24356;48.460;11.450;2023-04-24T10:16:46;14.90;77.50
38592;DHT22;24356;48.460;11.450;2023-04-24T10:19:13;15.00;77.30
38592;DHT22;24356;48.460;11.450;2023-04-24T10:21:41;15.00;76.80
38592;DHT22;24356;48.460;11.450;2023-04-24T10:24:16;15.10;76.40
38592;DHT22;24356;48.460;11.450;2023-04-24T10:26:43;15.10;77.00
38592;DHT22;24356;48.460;11.450;2023-04-24T10:29:10;15.20;76.50
38592;DHT22;24356;48.460;11.450;2023-04-24T10:31:38;15.20;75.90
38592;DHT22;24356;48.460;11.450;2023-04-24T10:34:09;15.20;75.70
38592;DHT22;24356;48.460;11.450;2023-04-24T10:36:36;15.20;75.60
38592;DHT22;24356;48.460;11.450;2023-04-24T10:39:08;15.20;75.40
38592;DHT22;24356;48.460;11.450;2023-04-24T10:41:37;15.20;75.70
38592;DHT22;24356;48.460;11.450;2023-04-24T10:44:12;15.30;75.40
38592;DHT22;24356;48.460;11.450;2023-04-24T10:46:39;15.40;75.40
38592;DHT22;24356;48.460;11.450;2023-04-24T10:49:08;15.50;74.90
38592;DHT22;24356;48.460;11.450;2023-04-24T10:51:45;15.50;74.50
38592;DHT22;24356;48.460;11.450;2023-04-24T10:56:55;15.10;74.10
38592;DHT22;24356;48.460;11.450;2023-04-24T10:59:38;14.90;74.30
38592;DHT22;24356;48.460;11.450;2023-04-24T11:02:07;14.60;74.90
38592;DHT22;24356;48.460;11.450;2023-04-24T11:04:33;14.40;75.20
38592;DHT22;24356;48.460;11.450;2023-04-24T11:07:01;14.20;75.50
38592;DHT22;24356;48.460;11.450;2023-04-24T11:09:30;14.00;76.20
38592;DHT22;24356;48.460;11.450;2023-04-24T11:12:07;13.90;76.50
38592;DHT22;24356;48.460;11.450;2023-04-24T11:17:33;13.70;77.20
38592;DHT22;24356;48.460;11.450;2023-04-24T11:20:10;13.70;77.50
38592;DHT22;24356;48.460;11.450;2023-04-24T11:22:38;13.70;77.60
38592;DHT22;24356;48.460;11.450;2023-04-24T11:25:05;13.80;78.00
38592;DHT22;24356;48.460;11.450;2023-04-24T11:27:41;13.90;78.00
38592;DHT22;24356;48.460;11.450;2023-04-24T11:30:08;14.10;78.70
38592;DHT22;24356;48.460;11.450;2023-04-24T11:32:40;14.20;78.20
38592;DHT22;24356;48.460;11.450;2023-04-24T11:35:16;14.30;77.60
38592;DHT22;24356;48.460;11.450;2023-04-24T11:37:47;14.40;77.60
38592;DHT22;24356;48.460;11.450;2023-04-24T11:40:15;14.50;77.60
38592;DHT22;24356;48.460;11.450;2023-04-24T11:42:46;14.70;77.50
38592;DHT22;24356;48.460;11.450;2023-04-24T11:45:20;14.80;77.40
38592;DHT22;24356;48.460;11.450;2023-04-24T11:47:46;14.90;77.20
38592;DHT22;24356;48.460;11.450;2023-04-24T11:50:14;15.00;76.80
38592;DHT22;24356;48.460;11.450;2023-04-24T11:52:41;15.10;77.30
38592;DHT22;24356;48.460;11.450;2023-04-24T11:57:43;15.40;77.00
38592;DHT22;24356;48.460;11.450;2023-04-24T12:00:16;15.50;76.80
38592;DHT22;24356;48.460;11.450;2023-04-24T12:02:42;15.60;76.60
38592;DHT22;24356;48.460;11.450;2023-04-24T12:05:08;15.70;76.30
38592;DHT22;24356;48.460;11.450;2023-04-24T12:07:43;15.70;76.00
38592;DHT22;24356;48.460;11.450;2023-04-24T12:10:09;15.60;75.50
38592;DHT22;24356;48.460;11.450;2023-04-24T12:12:35;15.60;75.40
38592;DHT22;24356;48.460;11.450;2023-04-24T12:15:06;15.50;75.50
38592;DHT22;24356;48.460;11.450;2023-04-24T12:17:33;15.60;75.70
38592;DHT22;24356;48.460;11.450;2023-04-24T12:20:05;15.60;75.80
38592;DHT22;24356;48.460;11.450;2023-04-24T12:22:55;15.60;75.60
38592;DHT22;24356;48.460;11.450;2023-04-24T12:25:23;15.70;75.60
38592;DHT22;24356;48.460;11.450;2023-04-24T12:27:54;15.80;75.40
38592;DHT22;24356;48.460;11.450;2023-04-24T12:30:27;15.80;75.10
38592;DHT22;24356;48.460;11.450;2023-04-24T12:32:54;15.80;74.80
38592;DHT22;24356;48.460;11.450;2023-04-24T12:35:22;15.90;74.80
38592;DHT22;24356;48.460;11.450;2023-04-24T12:37:48;16.00;74.90
38592;DHT22;24356;48.460;11.450;2023-04-24T12:40:15;16.10;74.90
38592;DHT22;24356;48.460;11.450;2023-04-24T12:42:48;16.20;74.60
38592;DHT22;24356;48.460;11.450;2023-04-24T12:45:15;16.30;74.00
38592;DHT22;24356;48.460;11.450;2023-04-24T12:47:42;16.30;73.50
38592;DHT22;24356;48.460;11.450;2023-04-24T12:50:09;16.30;73.00
38592;DHT22;24356;48.460;11.450;2023-04-24T12:52:36;16.20;72.80
38592;DHT22;24356;48.460;11.450;2023-04-24T12:55:02;16.10;72.70
38592;DHT22;24356;48.460;11.450;2023-04-24T12:57:29;16.00;72.70
38592;DHT22;24356;48.460;11.450;2023-04-24T12:59:56;15.90;72.90
38592;DHT22;24356;48.460;11.450;2023-04-24T13:02:23;15.90;72.70
38592;DHT22;24356;48.460;11.450;2023-04-24T13:04:49;15.80;72.80
38592;DHT22;24356;48.460;11.450;2023-04-24T13:07:15;15.80;72.90
38592;DHT22;24356;48.460;11.450;2023-04-24T13:09:43;15.90;73.00
38592;DHT22;24356;48.460;11.450;2023-04-24T13:12:10;16.00;73.30
38592;DHT22;24356;48.460;11.450;2023-04-24T13:14:36;16.20;73.80
38592;DHT22;24356;48.460;11.450;2023-04-24T13:17:02;16.30;74.00
38592;DHT22;24356;48.460;11.450;2023-04-24T13:19:28;16.40;73.40
38592;DHT22;24356;48.460;11.450;2023-04-24T13:21:55;16.60;73.40
38592;DHT22;24356;48.460;11.450;2023-04-24T13:24:22;16.60;72.90
38592;DHT22;24356;48.460;11.450;2023-04-24T13:26:50;16.70;73.10
38592;DHT22;24356;48.460;11.450;2023-04-24T13:29:16;16.80;73.60
38592;DHT22;24356;48.460;11.450;2023-04-24T13:31:42;16.80;72.80
38592;DHT22;24356;48.460;11.450;2023-04-24T13:34:08;16.90;73.00
38592;DHT22;24356;48.460;11.450;2023-04-24T13:36:34;16.90;72.00
38592;DHT22;24356;48.460;11.450;2023-04-24T13:39:00;16.80;71.20
38592;DHT22;24356;48.460;11.450;2023-04-24T13:41:26;16.60;71.00
38592;DHT22;24356;48.460;11.450;2023-04-24T13:43:52;16.50;71.00
38592;DHT22;24356;48.460;11.450;2023-04-24T13:46:19;16.40;71.20
38592;DHT22;24356;48.460;11.450;2023-04-24T13:48:45;16.40;71.50
38592;DHT22;24356;48.460;11.450;2023-04-24T13:51:10;16.30;71.30
38592;DHT22;24356;48.460;11.450;2023-04-24T13:53:36;16.20;71.00
38592;DHT22;24356;48.460;11.450;2023-04-24T13:56:04;16.10;71.00
38592;DHT22;24356;48.460;11.450;2023-04-24T13:58:30;16.00;71.20
38592;DHT22;24356;48.460;11.450;2023-04-24T14:00:55;16.00;71.00
38592;DHT22;24356;48.460;11.450;2023-04-24T14:03:21;16.00;71.20
38592;DHT22;24356;48.460;11.450;2023-04-24T14:05:49;16.10;71.30
38592;DHT22;24356;48.460;11.450;2023-04-24T14:08:17;16.20;71.40
38592;DHT22;24356;48.460;11.450;2023-04-24T14:10:42;16.30;71.30
38592;DHT22;24356;48.460;11.450;2023-04-24T14:13:08;16.30;71.20
38592;DHT22;24356;48.460;11.450;2023-04-24T14:15:35;16.40;70.70
38592;DHT22;24356;48.460;11.450;2023-04-24T14:18:01;16.40;70.50
38592;DHT22;24356;48.460;11.450;2023-04-24T14:20:27;16.40;70.20
38592;DHT22;24356;48.460;11.450;2023-04-24T14:22:52;16.30;69.70
38592;DHT22;24356;48.460;11.450;2023-04-24T14:25:18;16.20;69.70
38592;DHT22;24356;48.460;11.450;2023-04-24T14:27:44;16.10;69.60
38592;DHT22;24356;48.460;11.450;2023-04-24T14:30:11;16.00;69.70
38592;DHT22;24356;48.460;11.450;2023-04-24T14:32:38;15.80;70.00
38592;DHT22;24356;48.460;11.450;2023-04-24T14:35:05;15.60;70.30
38592;DHT22;24356;48.460;11.450;2023-04-24T14:37:32;15.50;70.20
38592;DHT22;24356;48.460;11.450;2023-04-24T14:39:57;15.40;70.60
38592;DHT22;24356;48.460;11.450;2023-04-24T14:42:23;15.20;70.70
38592;DHT22;24356;48.460;11.450;2023-04-24T14:44:49;15.10;70.60
38592;DHT22;24356;48.460;11.450;2023-04-24T14:47:14;15.10;70.90
38592;DHT22;24356;48.460;11.450;2023-04-24T14:49:43;15.00;71.20
38592;DHT22;24356;48.460;11.450;2023-04-24T14:52:09;14.90;71.20
38592;DHT22;24356;48.460;11.450;2023-04-24T14:54:35;15.00;71.40
38592;DHT22;24356;48.460;11.450;2023-04-24T14:57:00;15.00;71.50
38592;DHT22;24356;48.460;11.450;2023-04-24T14:59:27;15.10;71.50
38592;DHT22;24356;48.460;11.450;2023-04-24T15:01:53;15.20;71.40
38592;DHT22;24356;48.460;11.450;2023-04-24T15:04:24;15.30;70.90
38592;DHT22;24356;48.460;11.450;2023-04-24T15:06:51;15.30;70.50
38592;DHT22;24356;48.460;11.450;2023-04-24T15:09:18;15.20;70.40
38592;DHT22;24356;48.460;11.450;2023-04-24T15:11:43;15.20;70.30
38592;DHT22;24356;48.460;11.450;2023-04-24T15:14:09;15.20;70.30
38592;DHT22;24356;48.460;11.450;2023-04-24T15:16:35;15.20;70.30
38592;DHT22;24356;48.460;11.450;2023-04-24T15:19:00;15.20;70.80
38592;DHT22;24356;48.460;11.450;2023-04-24T15:21:26;15.20;71.10
38592;DHT22;24356;48.460;11.450;2023-04-24T15:23:52;15.40;71.20
38592;DHT22;24356;48.460;11.450;2023-04-24T15:26:18;15.50;71.10
38592;DHT22;24356;48.460;11.450;2023-04-24T15:28:44;15.60;70.90